Time;durP1;ratioP1;P1;durP2;ratioP2;P2;SDS_P1;SDS_P2;PMS_P1;PMS_P2;Temp;Humidity;BMP_temperature;BMP_pressure;BME280_temperature;BME280_humidity;BME280_pressure;Samples;Min_cycle;Max_cycle;Signal;HPM_P1;HPM_P2
2023/09/05 00:01:53;;;;;;;4.72;3.90;;;;;;;20.85;45.53;100111.75;10426537;28;20259;-34
2023/09/05 00:06:56;;;;;;;6.30;3.40;;;;;;;20.89;45.31;100091.16;10425319;28;20251;-34
2023/09/05 00:11:58;;;;;;;4.90;3.78;;;;;;;19.25;47.46;100209.81;10427513;28;20243;-34
2023/09/05 00:17:00;;;;;;;4.53;3.65;;;;;;;19.63;46.20;100208.63;10432556;28;20311;-34
2023/09/05 00:22:01;;;;;;;4.45;3.20;;;;;;;19.77;46.48;100193.75;10426190;28;20246;-34
2023/09/05 00:27:09;;;;;;;4.60;3.63;;;;;;;19.64;46.70;100166.88;10429899;28;20546;-34
2023/09/05 00:32:11;;;;;;;4.88;3.60;;;;;;;19.55;46.71;100202.50;10430127;28;20714;-34
2023/09/05 00:37:21;;;;;;;3.95;3.35;;;;;;;20.06;45.68;100218.31;10425569;28;20232;-34
2023/09/05 00:42:23;;;;;;;5.18;3.72;;;;;;;21.16;44.20;100121.25;10424598;28;20661;-34
2023/09/05 00:47:27;;;;;;;4.22;3.55;;;;;;;19.52;46.43;100221.94;10433788;28;20281;-34
2023/09/05 00:52:29;;;;;;;3.92;3.50;;;;;;;18.96;46.90;100234.03;10425739;28;20224;-34
2023/09/05 00:57:31;;;;;;;5.53;3.75;;;;;;;19.18;47.29;100189.06;10429219;28;20267;-35
2023/09/05 01:02:34;;;;;;;4.30;3.90;;;;;;;19.72;45.86;100175.47;10428580;28;20274;-35
2023/09/05 01:07:53;;;;;;;4.95;3.85;;;;;;;20.04;45.71;100166.94;10426766;28;20689;-35
2023/09/05 01:12:58;;;;;;;3.65;3.35;;;;;;;19.71;46.83;100140.41;10429324;28;20372;-34
2023/09/05 01:18:00;;;;;;;4.15;3.38;;;;;;;19.96;45.39;100161.88;10428477;28;20219;-34
2023/09/05 01:23:16;;;;;;;3.85;3.47;;;;;;;18.50;47.52;100262.50;10427870;28;20231;-35
2023/09/05 01:28:23;;;;;;;4.75;3.30;;;;;;;19.82;45.21;100212.88;10420871;28;20223;-35
2023/09/05 01:33:24;;;;;;;3.63;3.33;;;;;;;18.83;47.64;100183.50;10429145;28;20224;-34
2023/09/05 01:38:26;;;;;;;3.58;3.28;;;;;;;19.03;46.48;100237.50;10429375;28;20240;-34
2023/09/05 01:43:28;;;;;;;7.30;3.65;;;;;;;19.98;45.50;100120.91;10420102;28;20235;-35
2023/09/05 01:48:30;;;;;;;3.60;3.30;;;;;;;19.65;45.79;100152.22;10421131;28;20247;-34
2023/09/05 01:53:32;;;;;;;3.90;3.58;;;;;;;18.93;46.29;100229.06;10422612;28;20232;-34
2023/09/05 01:58:33;;;;;;;4.43;3.53;;;;;;;19.01;46.48;100188.06;10422935;28;20269;-35
2023/09/05 02:03:35;;;;;;;4.13;3.28;;;;;;;20.57;44.09;100116.13;10424080;28;20237;-35
2023/09/05 02:08:37;;;;;;;4.60;3.22;;;;;;;19.09;45.68;100209.44;10424851;28;20245;-34
2023/09/05 02:13:39;;;;;;;3.40;3.00;;;;;;;19.09;45.76;100179.59;10415906;28;20280;-34
2023/09/05 02:18:41;;;;;;;5.35;3.30;;;;;;;18.30;46.33;100243.75;10410676;28;20244;-35
2023/09/05 02:23:42;;;;;;;5.72;3.53;;;;;;;18.75;45.63;100211.75;10414981;28;20240;-34
2023/09/05 02:28:44;;;;;;;3.42;3.08;;;;;;;18.17;46.47;100266.34;10417430;28;20242;-35
2023/09/05 02:33:46;;;;;;;6.78;3.45;;;;;;;20.05;43.77;100135.16;10420515;28;20954;-35
2023/09/05 02:38:48;;;;;;;4.43;3.03;;;;;;;17.95;47.18;100214.50;10417864;28;20240;-35
2023/09/05 02:43:50;;;;;;;3.60;3.03;;;;;;;19.13;44.88;100194.34;10421224;28;20272;-34
2023/09/05 02:48:51;;;;;;;3.35;3.00;;;;;;;18.50;46.61;100159.53;10420504;28;25082;-34
2023/09/05 02:53:56;;;;;;;4.38;3.20;;;;;;;18.36;46.49;100175.97;10420306;28;20705;-35
2023/09/05 02:58:58;;;;;;;3.55;3.13;;;;;;;16.91;48.11;100269.69;10416055;28;20239;-35
2023/09/05 03:04:00;;;;;;;5.07;3.25;;;;;;;17.62;47.55;100192.06;10421704;28;20242;-35
2023/09/05 03:09:03;;;;;;;4.32;3.50;;;;;;;18.08;47.03;100133.13;10420049;28;20239;-35
2023/09/05 03:14:05;;;;;;;3.47;3.17;;;;;;;17.14;47.82;100206.16;10418617;28;20243;-35
2023/09/05 03:19:07;;;;;;;3.67;3.25;;;;;;;18.17;46.34;100141.78;10422754;28;20236;-35
2023/09/05 03:24:09;;;;;;;5.47;3.72;;;;;;;17.48;47.13;100214.91;10439509;22;20219;-37
2023/09/05 03:29:10;;;;;;;5.10;3.80;;;;;;;17.35;47.07;100207.69;10419148;28;20230;-37
2023/09/05 03:34:12;;;;;;;6.43;3.55;;;;;;;16.71;48.40;100241.94;10422824;28;20260;-37
2023/09/05 03:39:14;;;;;;;4.45;3.20;;;;;;;18.27;45.93;100123.97;10421747;28;20256;-38
2023/09/05 03:44:16;;;;;;;4.25;3.20;;;;;;;16.52;48.75;100222.06;10413862;28;20263;-38
2023/09/05 03:49:18;;;;;;;4.25;3.25;;;;;;;16.77;48.29;100225.69;10407627;28;20263;-37
2023/09/05 03:54:20;;;;;;;5.43;3.33;;;;;;;17.04;47.87;100176.06;10412746;28;20228;-39
2023/09/05 03:59:22;;;;;;;3.67;3.30;;;;;;;16.61;48.61;100199.97;10412480;28;20853;-37
2023/09/05 04:04:23;;;;;;;5.45;3.40;;;;;;;17.92;46.48;100124.56;10413390;28;20234;-38
2023/09/05 04:09:25;;;;;;;3.90;3.10;;;;;;;17.04;47.98;100197.72;10418135;28;20234;-37
2023/09/05 04:14:27;;;;;;;3.63;3.30;;;;;;;17.71;46.34;100161.03;10419314;28;20263;-38
2023/09/05 04:19:29;;;;;;;4.15;3.50;;;;;;;16.88;48.08;100194.44;10426896;28;20709;-38
2023/09/05 04:24:30;;;;;;;3.97;3.33;;;;;;;17.88;46.87;100095.47;10422670;28;20232;-39
2023/09/05 04:29:32;;;;;;;3.80;3.25;;;;;;;16.75;47.74;100244.00;10421113;28;20240;-39
2023/09/05 04:34:34;;;;;;;3.28;2.90;;;;;;;17.03;47.71;100202.28;10416271;28;20233;-39
2023/09/05 04:39:37;;;;;;;4.22;3.17;;;;;;;17.57;47.32;100129.69;10425834;28;20317;-37
2023/09/05 04:44:39;;;;;;;3.63;2.95;;;;;;;16.04;49.22;100267.22;10417805;28;20224;-37
2023/09/05 04:49:41;;;;;;;3.47;2.80;;;;;;;16.64;48.31;100203.31;10419447;28;20701;-38
2023/09/05 04:54:42;;;;;;;4.80;3.20;;;;;;;16.99;47.49;100195.69;10420429;28;20663;-38
2023/09/05 04:59:47;;;;;;;3.50;3.20;;;;;;;16.62;48.61;100190.84;10422701;28;20227;-38
2023/09/05 05:04:49;;;;;;;4.10;3.22;;;;;;;17.80;46.63;100150.72;10418174;28;20327;-37
2023/09/05 05:09:50;;;;;;;3.10;2.80;;;;;;;15.97;49.39;100320.34;10421945;28;20777;-39
2023/09/05 05:14:52;;;;;;;4.00;3.50;;;;;;;15.52;50.66;100312.81;10423102;28;20362;-38
2023/09/05 05:19:55;;;;;;;3.47;3.17;;;;;;;15.96;49.34;100315.16;10426169;28;20237;-38
2023/09/05 05:24:57;;;;;;;5.07;3.47;;;;;;;15.69;50.18;100307.06;10416903;28;20314;-38
2023/09/05 05:29:59;;;;;;;3.33;3.03;;;;;;;15.45;50.84;100276.91;10423780;28;21291;-38
2023/09/05 05:35:01;;;;;;;4.13;3.73;;;;;;;16.88;48.30;100189.03;10418822;28;20236;-37
2023/09/05 05:40:03;;;;;;;3.85;3.45;;;;;;;16.55;48.94;100208.97;10419259;28;20227;-38
2023/09/05 05:45:05;;;;;;;4.37;3.53;;;;;;;17.24;48.20;100179.50;10416789;28;20629;-39
2023/09/05 05:50:09;;;;;;;3.37;3.07;;;;;;;15.90;49.65;100313.31;10420399;28;20691;-37
2023/09/05 05:55:11;;;;;;;5.22;3.35;;;;;;;16.11;49.67;100290.66;10412164;28;20290;-38
2023/09/05 06:00:13;;;;;;;4.03;3.27;;;;;;;17.02;48.06;100230.38;10420310;28;21025;-38
2023/09/05 06:05:15;;;;;;;4.07;3.03;;;;;;;17.28;47.60;100261.84;10419206;28;20295;-39
2023/09/05 06:10:17;;;;;;;5.30;3.77;;;;;;;17.90;47.27;100190.81;10424172;28;20236;-39
2023/09/05 06:15:19;;;;;;;4.80;3.30;;;;;;;16.80;48.04;100354.13;10421506;28;20231;-38
2023/09/05 06:20:21;;;;;;;3.92;3.40;;;;;;;17.20;47.84;100321.59;10419028;28;20316;-39
2023/09/05 06:25:25;;;;;;;3.20;2.90;;;;;;;18.32;46.39;100253.34;10412075;28;20234;-39
2023/09/05 06:30:27;;;;;;;3.72;3.03;;;;;;;19.22;45.69;100172.34;10418652;28;20235;-39
2023/09/05 06:35:29;;;;;;;6.13;3.40;;;;;;;18.44;46.51;100235.28;10418294;28;20228;-37
2023/09/05 06:40:30;;;;;;;6.60;3.55;;;;;;;17.70;46.63;100348.81;10417712;28;20366;-38
2023/09/05 06:45:32;;;;;;;3.80;2.83;;;;;;;18.15;46.67;100325.34;10418092;28;20234;-38
2023/09/05 06:50:34;;;;;;;3.72;2.90;;;;;;;18.79;46.34;100237.34;10419216;28;20236;-39
2023/09/05 06:55:36;;;;;;;4.35;3.13;;;;;;;19.60;44.39;100260.66;10417349;28;20229;-38
2023/09/05 07:00:39;;;;;;;3.90;2.80;;;;;;;18.43;45.33;100376.38;10397788;28;20298;-39
2023/09/05 07:05:41;;;;;;;3.85;2.95;;;;;;;19.53;45.38;100253.41;10419839;28;20235;-38
2023/09/05 07:10:47;;;;;;;4.03;2.70;;;;;;;19.99;44.24;100220.31;10419593;28;20235;-37
2023/09/05 07:15:49;;;;;;;3.10;2.60;;;;;;;18.59;45.54;100389.38;10420673;28;20234;-38
2023/09/05 07:20:51;;;;;;;4.28;2.60;;;;;;;20.64;42.84;100211.13;10421776;28;20239;-37
2023/09/05 07:25:54;;;;;;;4.00;2.55;;;;;;;19.88;44.84;100232.84;10419539;28;20588;-37
2023/09/05 07:30:56;;;;;;;4.38;2.10;;;;;;;19.95;44.55;100264.22;10418722;28;20240;-38
2023/09/05 07:35:58;;;;;;;3.00;2.50;;;;;;;19.62;44.00;100310.97;10410861;28;20613;-38
2023/09/05 07:41:03;;;;;;;3.83;2.60;;;;;;;21.26;42.74;100183.19;10419744;28;20243;-37
2023/09/05 07:46:05;;;;;;;5.25;2.67;;;;;;;21.14;43.24;100185.13;10421111;28;20610;-38
2023/09/05 07:51:07;;;;;;;4.15;2.20;;;;;;;21.30;43.03;100181.63;10408826;28;20246;-37
2023/09/05 07:56:09;;;;;;;5.38;2.38;;;;;;;22.13;41.10;100200.91;10426497;28;20877;-37
2023/09/05 08:01:10;;;;;;;2.45;2.17;;;;;;;21.69;42.18;100208.13;10421145;28;20586;-37
2023/09/05 08:06:13;;;;;;;3.05;2.05;;;;;;;21.12;42.94;100253.44;10421821;28;20236;-38
2023/09/05 08:11:15;;;;;;;3.85;2.50;;;;;;;22.22;41.99;100200.44;10426502;28;20247;-37
2023/09/05 08:16:17;;;;;;;5.00;2.40;;;;;;;21.20;42.76;100276.69;10421324;28;20282;-39
2023/09/05 08:21:19;;;;;;;3.88;2.25;;;;;;;21.75;41.85;100276.03;10425633;28;20305;-38
2023/09/05 08:26:21;;;;;;;3.53;2.50;;;;;;;22.15;41.33;100276.97;10420108;28;21033;-38
2023/09/05 08:31:24;;;;;;;2.78;2.28;;;;;;;22.32;41.82;100236.03;10424402;28;20242;-37
2023/09/05 08:36:26;;;;;;;3.47;2.40;;;;;;;22.84;40.77;100226.59;10419665;28;20208;-37
2023/09/05 08:41:29;;;;;;;3.03;2.38;;;;;;;23.21;40.43;100217.69;10425384;28;20630;-38
2023/09/05 08:46:31;;;;;;;2.10;1.90;;;;;;;23.25;40.39;100229.78;10418153;28;20224;-38
2023/09/05 08:51:39;;;;;;;3.65;2.20;;;;;;;23.62;39.87;100270.81;10422837;28;20236;-36
2023/09/05 08:56:41;;;;;;;6.13;2.25;;;;;;;23.05;40.89;100227.63;10419117;28;20204;-37
2023/09/05 09:01:44;;;;;;;3.03;2.05;;;;;;;23.78;39.52;100208.06;10422241;28;20240;-37
2023/09/05 09:06:54;;;;;;;2.67;2.05;;;;;;;23.40;40.25;100209.97;10420990;28;20235;-37
2023/09/05 09:11:59;;;;;;;2.50;1.75;;;;;;;24.46;38.53;100196.41;10421124;28;20264;-37
2023/09/05 09:17:04;;;;;;;2.97;2.05;;;;;;;24.53;38.45;100183.34;10419076;28;20658;-37
2023/09/05 09:22:08;;;;;;;2.20;2.00;;;;;;;24.32;38.67;100226.19;10418556;28;20467;-38
2023/09/05 09:27:11;;;;;;;2.20;2.00;;;;;;;25.12;37.77;100190.31;10414384;28;20243;-38
2023/09/05 09:32:13;;;;;;;3.83;1.80;;;;;;;23.35;38.05;100275.47;10419215;28;20248;-38
2023/09/05 09:37:24;;;;;;;2.83;2.10;;;;;;;25.39;37.34;100184.59;10420157;28;20211;-37
2023/09/05 09:42:27;;;;;;;3.30;2.08;;;;;;;25.59;37.43;100166.47;10419690;28;20278;-37
2023/09/05 09:47:31;;;;;;;3.80;2.13;;;;;;;25.37;37.25;100202.38;10412790;28;20357;-38
2023/09/05 09:52:37;;;;;;;2.47;2.00;;;;;;;26.03;36.47;100161.19;10417893;28;20351;-37
2023/09/05 09:57:44;;;;;;;8.10;2.10;;;;;;;25.71;37.50;100183.47;10420484;28;20233;-37
2023/09/05 10:02:47;;;;;;;2.22;1.70;;;;;;;26.25;37.70;100150.97;10419129;28;20600;-37
2023/09/05 10:07:51;;;;;;;3.05;1.95;;;;;;;24.96;37.81;100233.25;10412635;28;20319;-37
2023/09/05 10:12:56;;;;;;;2.53;1.92;;;;;;;26.71;36.49;100142.50;10408631;28;20232;-37
2023/09/05 10:17:59;;;;;;;4.75;2.05;;;;;;;25.35;36.73;100213.59;10410964;28;20228;-37
2023/09/05 10:23:05;;;;;;;1.98;1.70;;;;;;;26.05;35.72;100144.47;10411305;28;20239;-38
2023/09/05 10:28:07;;;;;;;5.00;2.10;;;;;;;26.17;36.22;100127.69;10413792;28;20254;-38
2023/09/05 10:33:12;;;;;;;3.53;1.90;;;;;;;26.73;35.56;100129.31;10420008;28;20243;-38
2023/09/05 10:38:15;;;;;;;2.83;1.95;;;;;;;25.57;36.94;100172.22;10412965;28;20212;-38
2023/09/05 10:43:21;;;;;;;6.65;2.15;;;;;;;25.29;36.48;100163.50;10417429;28;24572;-37
2023/09/05 10:48:40;;;;;;;2.05;1.85;;;;;;;26.85;35.60;100135.25;10412571;28;20208;-38
2023/09/05 10:53:46;;;;;;;2.17;1.98;;;;;;;26.31;34.91;100155.34;10414970;28;20697;-39
2023/09/05 10:58:54;;;;;;;2.38;2.13;;;;;;;25.42;37.03;100147.59;10411821;28;20556;-38
2023/09/05 11:06:17;;;;;;;2.38;2.00;;;;;;;25.78;37.23;100070.84;10317697;27;20845;-74
2023/09/05 11:11:25;;;;;;;4.15;1.77;;;;;;;25.76;37.87;100095.78;10326800;28;20876;-74
2023/09/05 11:16:27;;;;;;;4.55;2.50;;;;;;;26.59;36.20;100035.81;10328561;28;20275;-74
2023/09/05 11:21:28;;;;;;;3.25;2.10;;;;;;;25.61;37.45;100090.31;10329972;28;20206;-74
2023/09/05 11:26:30;;;;;;;4.65;2.20;;;;;;;25.43;37.05;100092.53;10331850;28;20240;-74
2023/09/05 11:31:33;;;;;;;3.95;2.60;;;;;;;26.67;36.41;100048.09;10286670;28;20502;-74
2023/09/05 11:36:36;;;;;;;2.25;1.67;;;;;;;25.83;36.95;100098.22;10323790;28;20725;-74
2023/09/05 11:41:41;;;;;;;2.25;1.67;;;;;;;25.93;37.43;100095.44;10329611;28;21420;-74
2023/09/05 11:46:43;;;;;;;3.63;1.95;;;;;;;26.63;36.05;100028.66;10323333;28;20249;-74
2023/09/05 11:51:44;;;;;;;2.65;2.00;;;;;;;26.42;36.95;100046.38;10323052;28;20324;-74
2023/09/05 11:56:46;;;;;;;3.33;1.80;;;;;;;26.46;36.15;100047.44;10330602;28;20265;-74
2023/09/05 12:01:48;;;;;;;7.22;2.00;;;;;;;25.46;36.65;100082.97;10319752;28;20819;-75
2023/09/05 12:06:51;;;;;;;2.10;1.92;;;;;;;26.89;36.43;100031.19;10323564;28;20332;-74
2023/09/05 12:12:07;;;;;;;3.53;2.00;;;;;;;27.97;35.11;100000.59;10326472;28;20304;-75
2023/09/05 12:17:14;;;;;;;3.30;1.90;;;;;;;26.99;35.58;100052.25;10297774;28;20221;-74
2023/09/05 12:22:23;;;;;;;3.88;1.90;;;;;;;27.22;35.05;100004.00;10302755;28;20812;-74
2023/09/05 12:27:25;;;;;;;2.95;1.80;;;;;;;27.86;34.39;99996.34;10293657;28;20229;-74
2023/09/05 12:32:27;;;;;;;2.75;1.55;;;;;;;26.74;35.07;100038.47;10303102;28;20287;-74
2023/09/05 12:37:29;;;;;;;1.98;1.80;;;;;;;27.66;35.25;99987.22;10290020;28;20229;-74
2023/09/05 12:42:30;;;;;;;2.58;1.88;;;;;;;27.49;34.69;99982.22;10269943;28;20253;-74
2023/09/05 12:47:33;;;;;;;3.20;1.73;;;;;;;27.95;35.30;100004.75;10283526;28;20242;-74
2023/09/05 12:52:35;;;;;;;4.03;1.85;;;;;;;26.88;35.34;100011.16;10267968;28;20236;-75
2023/09/05 12:57:41;;;;;;;4.72;1.60;;;;;;;28.50;34.43;99977.50;10296194;28;20755;-75
2023/09/05 13:02:45;;;;;;;2.17;1.80;;;;;;;27.53;34.56;99990.72;10298046;28;20229;-74
2023/09/05 13:07:47;;;;;;;2.17;1.70;;;;;;;27.72;34.66;99999.00;10297626;28;20312;-74
2023/09/05 13:12:51;;;;;;;1.95;1.60;;;;;;;27.01;34.34;100003.34;10299975;28;20321;-74
2023/09/05 13:17:53;;;;;;;3.42;1.60;;;;;;;28.40;34.10;99945.47;10285653;28;20238;-74
2023/09/05 13:22:55;;;;;;;4.07;1.85;;;;;;;27.44;33.77;100003.47;10268640;28;20237;-74
2023/09/05 13:27:57;;;;;;;4.20;2.17;;;;;;;27.33;34.29;100005.53;10294042;28;20226;-74
2023/09/05 13:32:58;;;;;;;3.72;1.50;;;;;;;27.17;34.06;99991.09;10289490;28;20697;-73
2023/09/05 13:38:00;;;;;;;1.80;1.40;;;;;;;26.98;34.63;99990.22;10296204;28;20226;-75
2023/09/05 13:43:02;;;;;;;1.90;1.60;;;;;;;28.29;33.52;99930.28;10298116;28;20483;-76
2023/09/05 13:48:04;;;;;;;2.08;1.48;;;;;;;27.81;34.34;99941.44;10292139;28;20622;-76
2023/09/05 13:53:07;;;;;;;2.05;1.55;;;;;;;26.95;33.89;99972.38;10306833;28;20420;-77
2023/09/05 13:58:09;;;;;;;2.83;1.40;;;;;;;27.96;33.50;99952.19;10294370;28;20709;-76
2023/09/05 14:03:10;;;;;;;2.17;1.40;;;;;;;28.31;33.14;99957.47;10288244;28;20316;-77
2023/09/05 14:08:12;;;;;;;1.83;1.38;;;;;;;27.78;33.10;99975.00;10293787;28;20277;-77
2023/09/05 14:13:14;;;;;;;1.50;1.35;;;;;;;29.24;32.42;99912.56;10295467;28;20226;-77
2023/09/05 14:18:16;;;;;;;1.67;1.58;;;;;;;27.48;32.68;99947.63;10294216;28;20231;-77
2023/09/05 14:23:18;;;;;;;2.58;1.27;;;;;;;28.77;32.58;99921.72;10289114;28;20233;-77
2023/09/05 14:28:20;;;;;;;1.85;1.50;;;;;;;28.08;31.95;99927.00;10295024;28;20253;-77
2023/09/05 14:33:22;;;;;;;2.10;1.45;;;;;;;28.14;32.56;99936.81;10296066;28;20299;-77
2023/09/05 14:38:23;;;;;;;1.88;1.55;;;;;;;28.30;32.72;99889.81;10292110;28;20235;-74
2023/09/05 14:43:26;;;;;;;1.52;1.38;;;;;;;28.30;32.27;99920.88;10289803;28;20726;-74
2023/09/05 14:48:28;;;;;;;2.35;1.35;;;;;;;28.17;32.60;99935.38;10291134;28;20306;-74
2023/09/05 14:53:31;;;;;;;1.88;1.30;;;;;;;28.38;32.22;99944.16;10294726;28;20230;-74
2023/09/05 14:58:32;;;;;;;3.13;1.42;;;;;;;28.07;32.34;99916.28;10297394;28;20621;-74
2023/09/05 15:03:34;;;;;;;2.45;1.80;;;;;;;29.08;31.65;99866.03;10290715;28;20237;-75
2023/09/05 15:08:36;;;;;;;2.58;1.52;;;;;;;28.05;32.22;99905.59;10295581;28;20230;-75
2023/09/05 15:13:38;;;;;;;1.42;1.30;;;;;;;28.01;33.01;99916.38;10297190;28;20265;-71
2023/09/05 15:18:40;;;;;;;1.50;1.40;;;;;;;28.13;32.72;99880.16;10291584;28;20808;-73
2023/09/05 15:23:41;;;;;;;3.88;1.50;;;;;;;28.82;31.78;99889.72;10292343;28;20233;-73
2023/09/05 15:28:43;;;;;;;1.52;1.20;;;;;;;28.71;32.07;99864.31;10287320;28;20238;-74
2023/09/05 15:33:45;;;;;;;4.97;1.73;;;;;;;28.10;32.65;99921.19;10292724;28;20261;-74
2023/09/05 15:38:47;;;;;;;2.33;1.45;;;;;;;28.69;32.65;99861.03;10291962;28;20238;-74
2023/09/05 15:43:48;;;;;;;1.30;1.20;;;;;;;28.75;31.86;99874.41;10289156;28;20241;-74
2023/09/05 15:48:50;;;;;;;1.52;1.42;;;;;;;28.88;31.77;99888.47;10298557;28;20330;-74
2023/09/05 15:53:52;;;;;;;5.65;1.50;;;;;;;28.79;32.56;99856.13;10302711;28;20868;-73
2023/09/05 15:58:55;;;;;;;1.50;1.38;;;;;;;28.46;33.04;99884.84;10303194;28;20600;-74
2023/09/05 16:03:57;;;;;;;1.67;1.30;;;;;;;28.57;32.95;99862.31;10306807;28;20317;-75
2023/09/05 16:08:58;;;;;;;2.08;1.75;;;;;;;27.84;33.66;99877.63;10301650;28;20605;-78
2023/09/05 16:14:01;;;;;;;2.17;1.30;;;;;;;27.88;33.68;99864.88;10301209;28;20869;-77
2023/09/05 16:19:02;;;;;;;3.33;1.30;;;;;;;28.77;32.88;99871.34;10299189;28;20233;-76
2023/09/05 16:24:05;;;;;;;1.80;1.50;;;;;;;28.06;33.72;99876.97;10295080;28;20613;-73
2023/09/05 16:29:08;;;;;;;1.73;1.50;;;;;;;27.49;34.55;99926.47;10294173;28;20652;-73
2023/09/05 16:34:09;;;;;;;2.25;1.20;;;;;;;28.27;33.62;99912.41;10294693;28;20660;-73
2023/09/05 16:39:11;;;;;;;1.52;1.40;;;;;;;28.63;33.63;99881.50;10301468;28;20690;-73
2023/09/05 16:44:13;;;;;;;2.35;1.30;;;;;;;28.22;34.13;99910.56;10297591;28;20679;-74
2023/09/05 16:49:15;;;;;;;1.88;1.30;;;;;;;28.77;34.08;99888.66;10297878;28;20316;-74
2023/09/05 16:54:17;;;;;;;2.42;1.60;;;;;;;28.10;34.24;99919.25;10290923;28;20240;-73
2023/09/05 16:59:19;;;;;;;2.72;1.27;;;;;;;29.41;33.24;99901.72;10295333;28;20474;-72
2023/09/05 17:04:21;;;;;;;1.50;1.40;;;;;;;28.77;33.86;99909.88;10294213;28;20246;-73
2023/09/05 17:09:22;;;;;;;1.30;1.20;;;;;;;29.09;33.42;99943.97;10297613;28;20253;-74
2023/09/05 17:14:26;;;;;;;1.60;1.50;;;;;;;29.69;33.26;99893.38;10297330;28;20234;-73
2023/09/05 17:19:29;;;;;;;2.70;1.35;;;;;;;28.58;34.13;99918.22;10299312;28;20230;-73
2023/09/05 17:24:32;;;;;;;3.08;1.50;;;;;;;27.20;36.30;99951.25;10291742;28;20234;-73
2023/09/05 17:29:34;;;;;;;2.50;1.40;;;;;;;27.81;35.86;99894.69;10298148;28;20316;-74
2023/09/05 17:34:36;;;;;;;2.40;1.40;;;;;;;27.56;36.29;99909.59;10293461;28;20240;-74
2023/09/05 17:39:38;;;;;;;3.13;1.48;;;;;;;26.87;36.41;99964.78;10296652;28;20368;-73
2023/09/05 17:44:40;;;;;;;1.45;1.30;;;;;;;27.36;35.62;99965.63;10294865;28;20233;-72
2023/09/05 17:49:42;;;;;;;1.92;1.30;;;;;;;26.89;36.73;99908.50;10299652;28;20227;-72
2023/09/05 17:54:44;;;;;;;1.50;1.40;;;;;;;27.19;36.20;99919.41;10287590;28;20250;-74
2023/09/05 17:59:45;;;;;;;2.17;1.67;;;;;;;26.25;37.42;99965.31;10297354;28;20580;-74
2023/09/05 18:04:47;;;;;;;1.40;1.30;;;;;;;27.47;35.97;99964.41;10288590;28;20357;-75
2023/09/05 18:09:53;;;;;;;2.97;1.42;;;;;;;25.99;37.83;99983.81;10293317;28;20317;-74
2023/09/05 18:14:55;;;;;;;2.78;1.40;;;;;;;25.27;38.93;99965.81;10295417;28;20234;-74
2023/09/05 18:19:56;;;;;;;3.03;1.50;;;;;;;25.65;38.74;99935.22;10296910;28;20373;-74
2023/09/05 18:24:58;;;;;;;3.90;1.45;;;;;;;25.06;39.40;99965.00;10290010;28;20325;-74
2023/09/05 18:30:00;;;;;;;2.85;1.90;;;;;;;25.52;38.86;99955.00;10297714;28;20693;-74
2023/09/05 18:35:02;;;;;;;1.50;1.40;;;;;;;25.20;38.53;100011.81;10289532;28;20650;-74
2023/09/05 18:40:04;;;;;;;3.13;1.67;;;;;;;25.40;38.51;99997.22;10292982;28;20329;-74
2023/09/05 18:45:07;;;;;;;1.63;1.50;;;;;;;25.00;39.58;99992.66;10294626;28;20225;-74
2023/09/05 18:50:08;;;;;;;2.58;1.60;;;;;;;25.67;38.58;99963.16;10298684;28;20230;-74
2023/09/05 18:55:10;;;;;;;2.63;1.67;;;;;;;25.14;39.54;99973.75;10291444;28;20230;-73
2023/09/05 19:00:12;;;;;;;2.40;2.05;;;;;;;24.49;39.95;100034.53;10293946;28;20237;-73
2023/09/05 19:05:18;;;;;;;1.83;1.50;;;;;;;22.96;42.20;100038.16;10288279;28;20542;-73
2023/09/05 19:10:20;;;;;;;1.75;1.50;;;;;;;23.49;41.82;100054.66;10291699;28;20693;-73
2023/09/05 19:15:21;;;;;;;4.57;1.50;;;;;;;25.74;38.82;99995.75;10295476;28;20229;-73
2023/09/05 19:20:23;;;;;;;2.53;1.63;;;;;;;23.82;41.02;100064.41;10291882;28;20229;-74
2023/09/05 19:25:25;;;;;;;1.73;1.63;;;;;;;24.37;40.37;100054.72;10295583;28;20246;-74
2023/09/05 19:30:27;;;;;;;2.35;1.70;;;;;;;23.85;41.00;100074.78;10306396;28;20314;-73
2023/09/05 19:35:28;;;;;;;2.67;1.50;;;;;;;25.34;39.36;100020.28;10300203;28;20434;-74
2023/09/05 19:40:30;;;;;;;1.70;1.60;;;;;;;24.37;40.81;100010.97;10298892;28;20702;-74
2023/09/05 19:45:32;;;;;;;2.95;1.30;;;;;;;23.30;42.39;100018.75;10293717;28;20704;-71
2023/09/05 19:50:36;;;;;;;5.47;1.83;;;;;;;23.96;40.93;100023.75;10294833;28;20245;-72
2023/09/05 19:55:37;;;;;;;2.92;1.95;;;;;;;23.63;42.13;100010.25;10289781;28;20227;-73
2023/09/05 20:00:39;;;;;;;2.55;1.50;;;;;;;24.58;40.77;100032.91;10298875;28;20269;-75
2023/09/05 20:05:41;;;;;;;2.33;1.67;;;;;;;23.26;42.36;100024.78;10313900;28;20292;-74
2023/09/05 20:10:43;;;;;;;2.75;1.83;;;;;;;22.77;43.24;100024.13;10298210;28;20732;-73
2023/09/05 20:15:45;;;;;;;3.13;1.90;;;;;;;23.30;42.89;100019.59;10298144;28;20234;-75
2023/09/05 20:20:55;;;;;;;2.70;1.80;;;;;;;22.93;43.11;100016.88;10300181;28;20238;-74
2023/09/05 20:25:57;;;;;;;2.08;1.50;;;;;;;22.50;43.81;100038.56;10296886;28;20226;-74
2023/09/05 20:31:00;;;;;;;2.83;1.90;;;;;;;22.80;42.83;100048.97;10304652;28;20667;-74
2023/09/05 20:36:04;;;;;;;6.07;2.05;;;;;;;23.10;42.87;100022.22;10291053;28;20789;-74
2023/09/05 20:41:06;;;;;;;2.00;1.80;;;;;;;22.14;44.44;100060.84;10296255;28;20780;-74
2023/09/05 20:46:08;;;;;;;2.40;1.70;;;;;;;22.05;43.95;100078.72;10293511;28;20241;-75
2023/09/05 20:51:12;;;;;;;2.00;1.80;;;;;;;22.46;43.27;100079.16;10296697;28;20234;-75
2023/09/05 20:56:16;;;;;;;3.38;2.00;;;;;;;23.32;43.06;100003.78;10295248;28;20237;-74
2023/09/05 21:01:20;;;;;;;4.18;2.10;;;;;;;23.43;41.87;100040.97;10296265;28;20747;-75
2023/09/05 21:06:22;;;;;;;2.45;1.73;;;;;;;22.44;43.79;100064.16;10291988;28;20329;-73
2023/09/05 21:11:24;;;;;;;2.72;1.88;;;;;;;21.97;44.54;100068.28;10301283;28;20231;-75
2023/09/05 21:16:25;;;;;;;2.40;1.95;;;;;;;23.30;42.03;100046.06;10290409;28;20230;-75
2023/09/05 21:21:27;;;;;;;2.63;1.90;;;;;;;21.77;43.76;100093.31;10295782;28;20301;-74
2023/09/05 21:26:29;;;;;;;3.78;2.33;;;;;;;21.47;44.62;100052.88;10295302;28;20308;-73
2023/09/05 21:31:31;;;;;;;2.90;2.00;;;;;;;21.82;43.78;100070.78;10291851;28;20206;-73
2023/09/05 21:36:33;;;;;;;3.33;2.13;;;;;;;21.97;43.42;100074.53;10290639;28;20349;-75
2023/09/05 21:41:34;;;;;;;2.65;1.92;;;;;;;23.95;41.43;100008.41;10297589;28;20237;-75
2023/09/05 21:46:36;;;;;;;3.25;2.47;;;;;;;22.63;42.58;100098.19;10289633;28;20689;-75
2023/09/05 21:51:38;;;;;;;2.30;2.10;;;;;;;21.68;44.05;100060.25;10295546;28;20674;-75
2023/09/05 21:56:40;;;;;;;2.95;2.30;;;;;;;21.58;44.59;100024.75;10289302;28;20615;-75
2023/09/05 22:01:41;;;;;;;3.53;2.25;;;;;;;21.07;45.09;100091.97;10295251;28;20206;-74
2023/09/05 22:06:43;;;;;;;4.78;2.22;;;;;;;22.07;44.29;100022.06;10290311;28;20758;-73
2023/09/05 22:11:45;;;;;;;5.43;2.22;;;;;;;21.60;45.05;100034.28;10293713;28;20230;-75
2023/09/05 22:16:47;;;;;;;2.38;2.17;;;;;;;21.87;44.79;100009.00;10288138;28;20344;-75
2023/09/05 22:21:49;;;;;;;3.08;2.22;;;;;;;20.58;46.31;100076.16;10293137;28;20285;-74
2023/09/05 22:26:52;;;;;;;2.42;2.20;;;;;;;21.33;44.81;100074.97;10285308;28;20643;-75
2023/09/05 22:31:53;;;;;;;2.58;1.90;;;;;;;21.13;45.50;100044.75;10292447;28;20241;-73
2023/09/05 22:36:55;;;;;;;3.17;1.92;;;;;;;20.77;46.01;100052.34;10285795;28;20237;-74
2023/09/05 22:41:57;;;;;;;2.15;1.98;;;;;;;21.68;44.83;100034.91;10296025;28;20230;-73
2023/09/05 22:46:59;;;;;;;4.10;2.20;;;;;;;21.81;44.51;100050.06;10285476;28;20249;-74
2023/09/05 22:52:02;;;;;;;2.83;2.20;;;;;;;21.08;45.01;100080.03;10292533;28;20713;-74
2023/09/05 22:57:04;;;;;;;2.70;2.40;;;;;;;20.31;46.31;100072.16;10287467;28;20874;-75
2023/09/05 23:02:06;;;;;;;3.83;2.40;;;;;;;20.29;46.53;100077.03;10287921;28;20617;-75
2023/09/05 23:07:08;;;;;;;3.35;2.50;;;;;;;20.72;45.84;100039.47;10296108;28;20241;-74
2023/09/05 23:12:10;;;;;;;3.80;2.70;;;;;;;20.09;45.97;100103.72;10293894;28;20368;-75
2023/09/05 23:17:11;;;;;;;3.72;2.88;;;;;;;19.94;46.46;100096.94;10286203;28;20234;-72